createdAt,value
2023-10-09T00:02:37.481Z,100845.56
2023-10-09T00:07:41.546Z,100835.97
2023-10-09T00:12:45.823Z,100822.56
2023-10-09T00:17:50.817Z,100821.03
2023-10-09T00:22:54.193Z,100815.38
2023-10-09T00:28:00.995Z,100818.97
2023-10-09T00:33:08.820Z,100804.59
2023-10-09T00:38:24.517Z,100801.53
2023-10-09T00:43:30.059Z,100775.94
2023-10-09T00:48:39.331Z,100763.63
2023-10-09T00:53:43.260Z,100756.44
2023-10-09T00:58:48.302Z,100740.09
2023-10-09T01:03:53.356Z,100736.66
2023-10-09T01:09:10.634Z,100749.38
2023-10-09T01:14:15.705Z,100751.84
2023-10-09T01:19:25.521Z,100740.53
2023-10-09T01:24:33.353Z,100723.31
2023-10-09T01:29:36.961Z,100709.50
2023-10-09T01:34:44.243Z,100687.91
2023-10-09T01:39:49.850Z,100682.38
2023-10-09T01:44:54.245Z,100674.78
2023-10-09T01:49:59.247Z,100654.41
2023-10-09T01:55:08.257Z,100650.94
2023-10-09T02:00:25.028Z,100650.53
2023-10-09T02:05:34.958Z,100635.72
2023-10-09T02:10:41.781Z,100606.66
2023-10-09T02:15:54.886Z,100598.59
2023-10-09T02:21:15.041Z,100583.22
2023-10-09T02:26:27.157Z,100571.59
2023-10-09T02:31:37.683Z,100566.88
2023-10-09T02:36:51.047Z,100556.06
2023-10-09T02:42:03.315Z,100553.81
2023-10-09T02:47:13.274Z,100546.59
2023-10-09T02:52:19.985Z,100543.00
2023-10-09T02:57:26.080Z,100542.00
2023-10-09T03:02:33.334Z,100547.00
2023-10-09T03:07:37.037Z,100528.13
2023-10-09T03:12:44.712Z,100508.91
2023-10-09T03:17:49.581Z,100514.97
2023-10-09T03:22:55.268Z,100520.09
2023-10-09T03:28:01.785Z,100514.69
2023-10-09T03:33:05.950Z,100506.09
2023-10-09T03:38:13.689Z,100496.97
2023-10-09T03:43:20.595Z,100502.22
2023-10-09T03:48:28.399Z,100491.81
2023-10-09T03:53:33.026Z,100482.41
2023-10-09T03:58:38.016Z,100465.69
2023-10-09T04:03:44.921Z,100460.56
2023-10-09T04:08:50.815Z,100464.84
2023-10-09T04:13:57.059Z,100449.41
2023-10-09T04:19:01.032Z,100434.31
2023-10-09T04:24:22.845Z,100421.84
2023-10-09T04:29:38.949Z,100421.53
2023-10-09T04:34:49.754Z,100428.47
2023-10-09T04:40:13.849Z,100419.72
2023-10-09T04:45:36.589Z,100414.47
2023-10-09T04:51:09.282Z,100401.31
2023-10-09T04:56:17.279Z,100388.13
2023-10-09T05:01:37.852Z,100387.34
2023-10-09T05:06:57.505Z,100388.31
2023-10-09T05:12:17.325Z,100393.56
2023-10-09T05:17:27.000Z,100384.84
2023-10-09T05:22:38.956Z,100375.28
2023-10-09T05:27:52.126Z,100378.75
2023-10-09T05:33:21.305Z,100383.03
2023-10-09T05:38:27.362Z,100383.19
2023-10-09T05:43:48.193Z,100382.06
2023-10-09T05:49:10.580Z,100381.91
2023-10-09T05:54:25.156Z,100387.56
2023-10-09T05:59:46.246Z,100374.22
2023-10-09T06:04:56.308Z,100373.09
2023-10-09T06:10:11.863Z,100401.59
2023-10-09T06:15:32.839Z,100407.53
2023-10-09T06:21:08.101Z,100410.69
2023-10-09T06:26:26.894Z,100399.03
2023-10-09T06:31:53.993Z,100402.19
2023-10-09T06:37:07.590Z,100415.03
2023-10-09T06:42:32.382Z,100414.91
2023-10-09T06:47:42.577Z,100425.94
2023-10-09T06:53:05.161Z,100412.63
2023-10-09T06:58:11.477Z,100433.25
2023-10-09T07:03:15.907Z,100430.66
2023-10-09T07:08:38.485Z,100423.81
2023-10-09T07:13:42.161Z,100464.72
2023-10-09T07:24:27.117Z,100450.47
2023-10-09T07:29:49.257Z,100439.75
2023-10-09T07:34:55.794Z,100436.13
2023-10-09T07:40:07.716Z,100439.94
2023-10-09T07:45:35.085Z,100444.31
2023-10-09T07:50:48.731Z,100455.72
2023-10-09T07:55:58.462Z,100477.53
2023-10-09T08:07:05.515Z,100483.53
2023-10-09T08:12:24.180Z,100489.16
2023-10-09T08:17:30.444Z,100497.13
2023-10-09T08:22:51.711Z,100499.97
2023-10-09T08:28:33.034Z,100485.28
2023-10-09T08:38:50.252Z,100487.31
2023-10-09T08:43:55.172Z,100489.09
2023-10-09T08:49:01.357Z,100496.69
2023-10-09T08:54:13.640Z,100492.47
2023-10-09T08:59:17.484Z,100482.13
2023-10-09T09:04:41.114Z,100492.72
2023-10-09T09:09:58.959Z,100483.13
2023-10-09T09:15:04.229Z,100466.16
2023-10-09T09:20:24.383Z,100495.53
2023-10-09T09:25:45.239Z,100498.19
2023-10-09T09:30:51.961Z,100496.88
2023-10-09T09:36:03.812Z,100498.22
2023-10-09T09:41:09.346Z,100478.75
2023-10-09T09:46:14.927Z,100462.25
2023-10-09T09:51:18.910Z,100467.75
2023-10-09T09:56:27.752Z,100452.56
2023-10-09T10:01:33.422Z,100445.47
2023-10-09T10:06:41.017Z,100444.97
2023-10-09T10:11:47.527Z,100418.41
2023-10-09T10:17:18.290Z,100417.88
2023-10-09T10:22:31.628Z,100422.16
2023-10-09T10:27:46.371Z,100409.63
2023-10-09T10:32:57.552Z,100409.78
2023-10-09T10:38:12.472Z,100406.63
2023-10-09T10:43:33.497Z,100392.13
2023-10-09T10:48:40.238Z,100399.41
2023-10-09T10:54:13.675Z,100397.56
2023-10-09T10:59:24.289Z,100413.41
2023-10-09T11:04:40.266Z,100413.59
2023-10-09T11:10:01.067Z,100407.31
2023-10-09T11:15:30.148Z,100404.03
2023-10-09T11:20:34.890Z,100397.09
2023-10-09T11:25:40.598Z,100411.13
2023-10-09T11:30:47.308Z,100410.13
2023-10-09T11:35:59.570Z,100418.06
2023-10-09T11:41:20.188Z,100425.97
2023-10-09T11:46:49.858Z,100423.03
2023-10-09T11:52:26.264Z,100423.00
2023-10-09T11:57:33.221Z,100430.25
2023-10-09T12:02:45.649Z,100418.88
2023-10-09T12:07:55.367Z,100425.97
2023-10-09T12:12:59.838Z,100432.91
2023-10-09T12:18:04.968Z,100430.09
2023-10-09T12:23:08.775Z,100420.84
2023-10-09T12:28:13.449Z,100424.00
2023-10-09T12:33:18.344Z,100419.38
2023-10-09T12:38:23.908Z,100418.91
2023-10-09T12:43:29.129Z,100421.69
2023-10-09T12:48:33.997Z,100419.69
2023-10-09T12:53:42.572Z,100424.00
2023-10-09T12:58:54.440Z,100425.50
2023-10-09T13:04:00.988Z,100413.09
2023-10-09T13:09:08.002Z,100404.00
2023-10-09T13:14:19.051Z,100405.66
2023-10-09T13:19:25.855Z,100394.91
2023-10-09T13:24:31.491Z,100389.94
2023-10-09T13:29:35.281Z,100402.34
2023-10-09T13:34:45.965Z,100411.94
2023-10-09T13:39:55.294Z,100397.88
2023-10-09T13:44:58.687Z,100400.00
2023-10-09T13:50:03.644Z,100404.16
2023-10-09T13:55:17.053Z,100409.63
2023-10-09T14:00:33.790Z,100406.13
2023-10-09T14:05:38.911Z,100406.78
2023-10-09T14:10:42.121Z,100406.78
2023-10-09T14:15:47.394Z,100398.06
2023-10-09T14:20:57.618Z,100404.34
2023-10-09T14:26:03.165Z,100393.91
2023-10-09T14:31:13.092Z,100396.72
2023-10-09T14:36:19.230Z,100396.72
2023-10-09T14:41:26.892Z,100390.63
2023-10-09T14:46:33.096Z,100396.25
2023-10-09T14:51:38.010Z,100395.41
2023-10-09T14:56:42.706Z,100405.84
2023-10-09T15:01:45.966Z,100395.59
2023-10-09T15:06:50.815Z,100402.53
2023-10-09T15:11:54.337Z,100406.00
2023-10-09T15:16:58.995Z,100410.94
2023-10-09T15:22:09.529Z,100404.66
2023-10-09T15:27:14.575Z,100402.00
2023-10-09T15:32:24.225Z,100399.34
2023-10-09T15:37:29.348Z,100416.88
2023-10-09T15:42:33.422Z,100416.88
2023-10-09T15:47:49.295Z,100413.22
2023-10-09T15:52:55.116Z,100414.22
2023-10-09T15:58:00.400Z,100423.00
2023-10-09T16:03:05.236Z,100430.94
2023-10-09T16:08:11.529Z,100429.28
2023-10-09T16:13:15.059Z,100421.34
2023-10-09T16:18:22.011Z,100430.94
2023-10-09T16:23:29.445Z,100428.28
2023-10-09T16:28:34.748Z,100437.38
2023-10-09T16:33:39.220Z,100439.19
2023-10-09T16:38:45.158Z,100449.44
2023-10-09T16:43:49.841Z,100456.53
2023-10-09T16:48:57.127Z,100451.25
2023-10-09T16:54:04.489Z,100454.06
2023-10-09T16:59:15.394Z,100460.00
2023-10-09T17:04:24.760Z,100463.47
2023-10-09T17:09:46.435Z,100460.00
2023-10-09T17:14:55.019Z,100473.38
2023-10-09T17:19:59.429Z,100476.03
2023-10-09T17:25:16.223Z,100481.16
2023-10-09T17:30:22.632Z,100483.16
2023-10-09T17:35:29.493Z,100484.81
2023-10-09T17:40:36.866Z,100489.09
2023-10-09T17:45:49.793Z,100493.53
2023-10-09T17:50:57.241Z,100492.56
2023-10-09T17:56:11.859Z,100477.69
2023-10-09T18:01:19.204Z,100488.25
2023-10-09T18:06:25.141Z,100481.81
2023-10-09T18:11:35.791Z,100479.19
2023-10-09T18:16:44.796Z,100493.06
2023-10-09T18:21:48.497Z,100483.13
2023-10-09T18:27:03.849Z,100485.78
2023-10-09T18:32:07.708Z,100492.91
2023-10-09T18:37:13.318Z,100495.34
2023-10-09T18:42:18.639Z,100493.72
2023-10-09T18:47:23.762Z,100481.00
2023-10-09T18:52:27.617Z,100480.50
2023-10-09T18:57:35.109Z,100480.16
2023-10-09T19:02:40.490Z,100492.72
2023-10-09T19:07:45.126Z,100495.38
2023-10-09T19:12:50.827Z,100502.16
2023-10-09T19:17:54.869Z,100504.81
2023-10-09T19:23:00.668Z,100500.97
2023-10-09T19:28:06.410Z,100513.22
2023-10-09T19:33:09.899Z,100512.41
2023-10-09T19:38:13.895Z,100516.69
2023-10-09T19:43:18.490Z,100522.13
2023-10-09T19:48:21.927Z,100523.78
2023-10-09T19:53:25.986Z,100518.19
2023-10-09T19:58:30.785Z,100519.16
2023-10-09T20:03:33.999Z,100520.97
2023-10-09T20:08:37.290Z,100545.44
2023-10-09T20:13:44.389Z,100547.91
2023-10-09T20:18:49.979Z,100547.91
2023-10-09T20:23:53.101Z,100559.34
2023-10-09T20:28:57.950Z,100551.22
2023-10-09T20:34:10.690Z,100564.44
2023-10-09T20:39:23.482Z,100559.16
2023-10-09T20:44:40.233Z,100567.94
2023-10-09T20:49:45.225Z,100563.78
2023-10-09T20:54:49.597Z,100564.78
2023-10-09T20:59:57.826Z,100570.41
2023-10-09T21:05:24.118Z,100575.34
2023-10-09T21:10:46.901Z,100582.44
2023-10-09T21:15:58.003Z,100588.41
2023-10-09T21:21:03.949Z,100578.84
2023-10-09T21:26:08.333Z,100592.06
2023-10-09T21:31:22.508Z,100592.88
2023-10-09T21:36:29.072Z,100584.13
2023-10-09T21:41:44.616Z,100590.88
2023-10-09T21:46:51.231Z,100602.44
2023-10-09T21:51:55.588Z,100607.59
2023-10-09T21:56:59.487Z,100605.75
2023-10-09T22:02:06.134Z,100604.94
2023-10-09T22:07:19.133Z,100606.59
2023-10-09T22:12:32.479Z,100611.03
2023-10-09T22:17:41.760Z,100609.25
2023-10-09T22:22:46.071Z,100612.22
2023-10-09T22:27:52.716Z,100609.72
2023-10-09T22:33:04.168Z,100613.34
2023-10-09T22:38:13.677Z,100615.34
2023-10-09T22:43:21.874Z,100620.63
2023-10-09T22:48:28.870Z,100616.47
2023-10-09T22:53:39.228Z,100618.47
2023-10-09T22:58:52.521Z,100611.19
2023-10-09T23:04:16.879Z,100610.03
2023-10-09T23:09:32.479Z,100609.97
2023-10-09T23:14:37.197Z,100609.31
2023-10-09T23:19:45.679Z,100614.75
2023-10-09T23:24:56.188Z,100623.97
2023-10-09T23:30:06.913Z,100626.13
2023-10-09T23:35:20.904Z,100632.22
2023-10-09T23:40:39.095Z,100643.47
2023-10-09T23:45:43.157Z,100645.81
2023-10-09T23:50:49.426Z,100644.66
2023-10-09T23:55:53.374Z,100639.38
